sensor_id;sensor_type;location;lat;lon;timestamp;P1;durP1;ratioP1;P2;durP2;ratioP2
25449;SDS011;13371;52.080;5.624;2023-05-16T00:01:48;12.73;;;1.92;;
25449;SDS011;13371;52.080;5.624;2023-05-16T00:04:13;8.45;;;1.92;;
25449;SDS011;13371;52.080;5.624;2023-05-16T00:06:39;12.30;;;2.17;;
25449;SDS011;13371;52.080;5.624;2023-05-16T00:09:05;11.65;;;1.77;;
25449;SDS011;13371;52.080;5.624;2023-05-16T00:11:31;10.82;;;1.50;;
25449;SDS011;13371;52.080;5.624;2023-05-16T00:13:57;11.05;;;2.65;;
25449;SDS011;13371;52.080;5.624;2023-05-16T00:16:22;7.85;;;1.67;;
25449;SDS011;13371;52.080;5.624;2023-05-16T00:18:49;10.40;;;1.80;;
25449;SDS011;13371;52.080;5.624;2023-05-16T00:21:17;14.38;;;2.08;;
25449;SDS011;13371;52.080;5.624;2023-05-16T00:23:42;7.70;;;2.00;;
25449;SDS011;13371;52.080;5.624;2023-05-16T00:26:08;7.65;;;1.90;;
25449;SDS011;13371;52.080;5.624;2023-05-16T00:28:34;8.07;;;1.83;;
25449;SDS011;13371;52.080;5.624;2023-05-16T00:30:59;5.43;;;1.40;;
25449;SDS011;13371;52.080;5.624;2023-05-16T00:33:25;6.32;;;1.80;;
25449;SDS011;13371;52.080;5.624;2023-05-16T00:35:51;10.73;;;1.80;;
25449;SDS011;13371;52.080;5.624;2023-05-16T00:38:17;8.52;;;2.20;;
25449;SDS011;13371;52.080;5.624;2023-05-16T00:40:43;12.60;;;1.80;;
25449;SDS011;13371;52.080;5.624;2023-05-16T00:43:10;8.43;;;1.90;;
25449;SDS011;13371;52.080;5.624;2023-05-16T00:45:36;6.45;;;2.28;;
25449;SDS011;13371;52.080;5.624;2023-05-16T00:48:01;8.52;;;1.42;;
25449;SDS011;13371;52.080;5.624;2023-05-16T00:50:27;11.43;;;1.50;;
25449;SDS011;13371;52.080;5.624;2023-05-16T00:52:53;6.03;;;1.48;;
25449;SDS011;13371;52.080;5.624;2023-05-16T00:55:19;9.50;;;1.63;;
25449;SDS011;13371;52.080;5.624;2023-05-16T00:57:44;9.38;;;1.40;;
25449;SDS011;13371;52.080;5.624;2023-05-16T01:00:10;4.35;;;1.60;;
25449;SDS011;13371;52.080;5.624;2023-05-16T01:02:39;6.35;;;1.17;;
25449;SDS011;13371;52.080;5.624;2023-05-16T01:05:05;6.25;;;1.33;;
25449;SDS011;13371;52.080;5.624;2023-05-16T01:07:32;8.07;;;1.70;;
25449;SDS011;13371;52.080;5.624;2023-05-16T01:09:58;8.80;;;1.27;;
25449;SDS011;13371;52.080;5.624;2023-05-16T01:15:14;7.10;;;1.50;;
25449;SDS011;13371;52.080;5.624;2023-05-16T01:28:06;8.70;;;1.92;;
25449;SDS011;13371;52.080;5.624;2023-05-16T01:30:34;6.05;;;1.42;;
25449;SDS011;13371;52.080;5.624;2023-05-16T01:33:04;2.83;;;1.08;;
25449;SDS011;13371;52.080;5.624;2023-05-16T01:35:30;10.45;;;1.35;;
25449;SDS011;13371;52.080;5.624;2023-05-16T01:38:04;7.57;;;1.40;;
25449;SDS011;13371;52.080;5.624;2023-05-16T01:43:34;8.85;;;1.73;;
25449;SDS011;13371;52.080;5.624;2023-05-16T01:46:10;7.97;;;1.30;;
25449;SDS011;13371;52.080;5.624;2023-05-16T01:48:42;7.13;;;1.70;;
25449;SDS011;13371;52.080;5.624;2023-05-16T01:51:15;7.43;;;1.20;;
25449;SDS011;13371;52.080;5.624;2023-05-16T01:53:41;7.03;;;1.42;;
25449;SDS011;13371;52.080;5.624;2023-05-16T01:56:10;3.08;;;0.88;;
25449;SDS011;13371;52.080;5.624;2023-05-16T01:58:40;4.93;;;1.52;;
25449;SDS011;13371;52.080;5.624;2023-05-16T02:01:06;10.52;;;1.58;;
25449;SDS011;13371;52.080;5.624;2023-05-16T02:03:32;6.45;;;1.45;;
25449;SDS011;13371;52.080;5.624;2023-05-16T02:05:58;4.90;;;1.17;;
25449;SDS011;13371;52.080;5.624;2023-05-16T02:08:24;5.40;;;1.30;;
25449;SDS011;13371;52.080;5.624;2023-05-16T02:10:52;3.67;;;1.10;;
25449;SDS011;13371;52.080;5.624;2023-05-16T02:13:27;6.43;;;1.77;;
25449;SDS011;13371;52.080;5.624;2023-05-16T02:16:00;5.22;;;1.17;;
25449;SDS011;13371;52.080;5.624;2023-05-16T02:18:25;8.32;;;1.60;;
25449;SDS011;13371;52.080;5.624;2023-05-16T02:20:52;10.93;;;1.65;;
25449;SDS011;13371;52.080;5.624;2023-05-16T02:23:17;5.72;;;1.23;;
25449;SDS011;13371;52.080;5.624;2023-05-16T02:25:43;3.97;;;1.42;;
25449;SDS011;13371;52.080;5.624;2023-05-16T02:28:09;5.88;;;1.58;;
25449;SDS011;13371;52.080;5.624;2023-05-16T02:30:34;7.20;;;1.73;;
25449;SDS011;13371;52.080;5.624;2023-05-16T02:33:00;9.35;;;1.63;;
25449;SDS011;13371;52.080;5.624;2023-05-16T02:35:25;7.78;;;1.30;;
25449;SDS011;13371;52.080;5.624;2023-05-16T02:37:51;15.43;;;1.50;;
25449;SDS011;13371;52.080;5.624;2023-05-16T02:40:16;10.50;;;1.80;;
25449;SDS011;13371;52.080;5.624;2023-05-16T02:42:42;6.30;;;1.63;;
25449;SDS011;13371;52.080;5.624;2023-05-16T02:45:08;11.98;;;1.73;;
25449;SDS011;13371;52.080;5.624;2023-05-16T02:47:34;6.80;;;1.80;;
25449;SDS011;13371;52.080;5.624;2023-05-16T02:49:59;7.57;;;1.10;;
25449;SDS011;13371;52.080;5.624;2023-05-16T02:52:25;13.80;;;1.80;;
25449;SDS011;13371;52.080;5.624;2023-05-16T02:54:51;7.53;;;1.48;;
25449;SDS011;13371;52.080;5.624;2023-05-16T02:57:16;9.95;;;1.40;;
25449;SDS011;13371;52.080;5.624;2023-05-16T02:59:42;5.43;;;1.23;;
25449;SDS011;13371;52.080;5.624;2023-05-16T03:02:07;13.80;;;1.80;;
25449;SDS011;13371;52.080;5.624;2023-05-16T03:04:33;4.07;;;0.95;;
25449;SDS011;13371;52.080;5.624;2023-05-16T03:06:59;6.35;;;1.33;;
25449;SDS011;13371;52.080;5.624;2023-05-16T03:09:24;11.35;;;1.83;;
25449;SDS011;13371;52.080;5.624;2023-05-16T03:11:50;7.45;;;1.60;;
25449;SDS011;13371;52.080;5.624;2023-05-16T03:14:15;12.45;;;1.50;;
25449;SDS011;13371;52.080;5.624;2023-05-16T03:16:41;7.20;;;1.40;;
25449;SDS011;13371;52.080;5.624;2023-05-16T03:19:08;3.90;;;1.63;;
25449;SDS011;13371;52.080;5.624;2023-05-16T03:21:34;10.15;;;1.55;;
25449;SDS011;13371;52.080;5.624;2023-05-16T03:24:01;10.98;;;1.55;;
25449;SDS011;13371;52.080;5.624;2023-05-16T03:26:28;10.68;;;1.85;;
25449;SDS011;13371;52.080;5.624;2023-05-16T03:28:53;10.10;;;1.95;;
25449;SDS011;13371;52.080;5.624;2023-05-16T03:31:19;6.45;;;1.95;;
25449;SDS011;13371;52.080;5.624;2023-05-16T03:33:45;7.93;;;1.75;;
25449;SDS011;13371;52.080;5.624;2023-05-16T03:36:10;7.53;;;1.48;;
25449;SDS011;13371;52.080;5.624;2023-05-16T03:38:36;4.70;;;1.40;;
25449;SDS011;13371;52.080;5.624;2023-05-16T03:41:02;8.10;;;1.90;;
25449;SDS011;13371;52.080;5.624;2023-05-16T03:43:27;7.25;;;1.77;;
25449;SDS011;13371;52.080;5.624;2023-05-16T03:45:53;5.18;;;1.48;;
25449;SDS011;13371;52.080;5.624;2023-05-16T03:48:19;8.30;;;2.13;;
25449;SDS011;13371;52.080;5.624;2023-05-16T03:50:45;6.45;;;2.05;;
25449;SDS011;13371;52.080;5.624;2023-05-16T03:53:11;10.52;;;1.73;;
25449;SDS011;13371;52.080;5.624;2023-05-16T03:55:37;3.03;;;1.40;;
25449;SDS011;13371;52.080;5.624;2023-05-16T03:58:03;10.95;;;2.00;;
25449;SDS011;13371;52.080;5.624;2023-05-16T04:00:29;8.68;;;1.63;;
25449;SDS011;13371;52.080;5.624;2023-05-16T04:02:54;7.22;;;1.15;;
25449;SDS011;13371;52.080;5.624;2023-05-16T04:05:20;4.28;;;1.27;;
25449;SDS011;13371;52.080;5.624;2023-05-16T04:07:46;4.65;;;1.75;;
25449;SDS011;13371;52.080;5.624;2023-05-16T04:10:11;4.05;;;1.17;;
25449;SDS011;13371;52.080;5.624;2023-05-16T04:12:38;9.30;;;1.85;;
25449;SDS011;13371;52.080;5.624;2023-05-16T04:15:04;9.35;;;2.15;;
25449;SDS011;13371;52.080;5.624;2023-05-16T04:17:30;6.70;;;1.90;;
25449;SDS011;13371;52.080;5.624;2023-05-16T04:19:56;10.10;;;1.73;;
25449;SDS011;13371;52.080;5.624;2023-05-16T04:22:22;5.00;;;1.73;;
25449;SDS011;13371;52.080;5.624;2023-05-16T04:24:48;5.32;;;1.30;;
25449;SDS011;13371;52.080;5.624;2023-05-16T04:27:14;4.07;;;1.20;;
25449;SDS011;13371;52.080;5.624;2023-05-16T04:29:39;6.93;;;1.70;;
25449;SDS011;13371;52.080;5.624;2023-05-16T04:32:05;5.22;;;1.35;;
25449;SDS011;13371;52.080;5.624;2023-05-16T04:34:31;12.27;;;1.85;;
25449;SDS011;13371;52.080;5.624;2023-05-16T04:36:58;5.15;;;1.67;;
25449;SDS011;13371;52.080;5.624;2023-05-16T04:39:24;5.13;;;1.30;;
25449;SDS011;13371;52.080;5.624;2023-05-16T04:41:49;10.10;;;1.63;;
25449;SDS011;13371;52.080;5.624;2023-05-16T04:44:15;4.55;;;1.50;;
25449;SDS011;13371;52.080;5.624;2023-05-16T04:46:41;6.45;;;1.80;;
25449;SDS011;13371;52.080;5.624;2023-05-16T04:49:07;10.20;;;2.20;;
25449;SDS011;13371;52.080;5.624;2023-05-16T04:51:32;6.97;;;1.45;;
25449;SDS011;13371;52.080;5.624;2023-05-16T04:53:59;12.70;;;1.92;;
25449;SDS011;13371;52.080;5.624;2023-05-16T04:56:25;10.35;;;1.55;;
25449;SDS011;13371;52.080;5.624;2023-05-16T04:58:51;13.75;;;2.10;;
25449;SDS011;13371;52.080;5.624;2023-05-16T05:01:16;7.15;;;1.80;;
25449;SDS011;13371;52.080;5.624;2023-05-16T05:03:42;6.82;;;1.83;;
25449;SDS011;13371;52.080;5.624;2023-05-16T05:06:08;9.10;;;1.67;;
25449;SDS011;13371;52.080;5.624;2023-05-16T05:08:33;12.60;;;1.70;;
25449;SDS011;13371;52.080;5.624;2023-05-16T05:10:59;8.02;;;2.03;;
25449;SDS011;13371;52.080;5.624;2023-05-16T05:13:25;8.68;;;1.70;;
25449;SDS011;13371;52.080;5.624;2023-05-16T05:15:51;12.52;;;1.80;;
25449;SDS011;13371;52.080;5.624;2023-05-16T05:18:16;5.20;;;1.52;;
25449;SDS011;13371;52.080;5.624;2023-05-16T05:20:42;6.18;;;1.40;;
25449;SDS011;13371;52.080;5.624;2023-05-16T05:23:08;7.82;;;1.58;;
25449;SDS011;13371;52.080;5.624;2023-05-16T05:25:37;4.57;;;1.40;;
25449;SDS011;13371;52.080;5.624;2023-05-16T05:28:03;7.53;;;1.40;;
25449;SDS011;13371;52.080;5.624;2023-05-16T05:30:28;8.57;;;1.60;;
25449;SDS011;13371;52.080;5.624;2023-05-16T05:32:54;12.20;;;1.98;;
25449;SDS011;13371;52.080;5.624;2023-05-16T05:35:20;15.38;;;2.58;;
25449;SDS011;13371;52.080;5.624;2023-05-16T05:37:45;8.45;;;2.05;;
25449;SDS011;13371;52.080;5.624;2023-05-16T05:40:11;4.85;;;1.85;;
25449;SDS011;13371;52.080;5.624;2023-05-16T05:42:37;9.23;;;1.65;;
25449;SDS011;13371;52.080;5.624;2023-05-16T05:45:02;7.53;;;1.98;;
25449;SDS011;13371;52.080;5.624;2023-05-16T05:47:28;5.63;;;1.58;;
25449;SDS011;13371;52.080;5.624;2023-05-16T05:49:54;2.10;;;1.08;;
25449;SDS011;13371;52.080;5.624;2023-05-16T05:52:20;5.60;;;2.10;;
25449;SDS011;13371;52.080;5.624;2023-05-16T05:54:46;11.35;;;1.77;;
25449;SDS011;13371;52.080;5.624;2023-05-16T05:57:15;4.45;;;1.50;;
25449;SDS011;13371;52.080;5.624;2023-05-16T05:59:40;5.63;;;1.58;;
25449;SDS011;13371;52.080;5.624;2023-05-16T06:02:06;15.40;;;1.63;;
25449;SDS011;13371;52.080;5.624;2023-05-16T06:04:32;9.77;;;1.58;;
25449;SDS011;13371;52.080;5.624;2023-05-16T06:06:57;5.55;;;1.60;;
25449;SDS011;13371;52.080;5.624;2023-05-16T06:09:23;3.67;;;1.20;;
25449;SDS011;13371;52.080;5.624;2023-05-16T06:11:49;7.97;;;1.30;;
25449;SDS011;13371;52.080;5.624;2023-05-16T06:14:14;7.18;;;1.75;;
25449;SDS011;13371;52.080;5.624;2023-05-16T06:16:40;8.25;;;1.15;;
25449;SDS011;13371;52.080;5.624;2023-05-16T06:19:06;10.73;;;1.60;;
25449;SDS011;13371;52.080;5.624;2023-05-16T06:21:32;4.50;;;1.00;;
25449;SDS011;13371;52.080;5.624;2023-05-16T06:23:58;9.90;;;1.60;;
25449;SDS011;13371;52.080;5.624;2023-05-16T06:26:24;6.50;;;1.20;;
25449;SDS011;13371;52.080;5.624;2023-05-16T06:28:49;7.55;;;1.30;;
25449;SDS011;13371;52.080;5.624;2023-05-16T06:31:15;3.05;;;0.77;;
25449;SDS011;13371;52.080;5.624;2023-05-16T06:33:41;2.15;;;0.73;;
25449;SDS011;13371;52.080;5.624;2023-05-16T06:36:06;8.05;;;1.40;;
25449;SDS011;13371;52.080;5.624;2023-05-16T06:38:32;4.30;;;0.90;;
25449;SDS011;13371;52.080;5.624;2023-05-16T06:40:58;6.70;;;0.95;;
25449;SDS011;13371;52.080;5.624;2023-05-16T06:43:23;6.78;;;1.02;;
25449;SDS011;13371;52.080;5.624;2023-05-16T06:45:49;8.38;;;0.90;;
25449;SDS011;13371;52.080;5.624;2023-05-16T06:48:16;6.30;;;0.82;;
25449;SDS011;13371;52.080;5.624;2023-05-16T06:53:47;3.22;;;0.88;;
25449;SDS011;13371;52.080;5.624;2023-05-16T06:56:13;2.00;;;0.73;;
25449;SDS011;13371;52.080;5.624;2023-05-16T06:58:38;6.95;;;1.45;;
25449;SDS011;13371;52.080;5.624;2023-05-16T07:01:04;6.90;;;0.82;;
25449;SDS011;13371;52.080;5.624;2023-05-16T07:03:29;5.20;;;0.77;;
25449;SDS011;13371;52.080;5.624;2023-05-16T07:05:55;4.85;;;0.95;;
25449;SDS011;13371;52.080;5.624;2023-05-16T07:08:22;5.43;;;1.23;;
25449;SDS011;13371;52.080;5.624;2023-05-16T07:10:48;8.05;;;1.20;;
25449;SDS011;13371;52.080;5.624;2023-05-16T07:13:14;2.05;;;0.60;;
25449;SDS011;13371;52.080;5.624;2023-05-16T07:15:40;3.55;;;0.70;;
25449;SDS011;13371;52.080;5.624;2023-05-16T07:18:12;7.03;;;1.02;;
25449;SDS011;13371;52.080;5.624;2023-05-16T07:20:38;3.97;;;0.90;;
25449;SDS011;13371;52.080;5.624;2023-05-16T07:23:04;1.92;;;0.40;;
25449;SDS011;13371;52.080;5.624;2023-05-16T07:25:29;4.63;;;0.85;;
25449;SDS011;13371;52.080;5.624;2023-05-16T07:27:55;5.30;;;0.82;;
25449;SDS011;13371;52.080;5.624;2023-05-16T07:30:21;3.45;;;0.82;;
25449;SDS011;13371;52.080;5.624;2023-05-16T07:32:47;6.13;;;0.90;;
25449;SDS011;13371;52.080;5.624;2023-05-16T07:35:13;5.68;;;0.80;;
25449;SDS011;13371;52.080;5.624;2023-05-16T07:37:39;5.40;;;0.70;;
25449;SDS011;13371;52.080;5.624;2023-05-16T07:40:06;9.20;;;1.42;;
25449;SDS011;13371;52.080;5.624;2023-05-16T07:42:32;4.45;;;0.70;;
25449;SDS011;13371;52.080;5.624;2023-05-16T07:44:58;8.07;;;1.05;;
25449;SDS011;13371;52.080;5.624;2023-05-16T07:47:23;5.28;;;0.90;;
25449;SDS011;13371;52.080;5.624;2023-05-16T07:49:49;6.50;;;1.67;;
25449;SDS011;13371;52.080;5.624;2023-05-16T07:52:15;2.63;;;0.73;;
25449;SDS011;13371;52.080;5.624;2023-05-16T07:54:40;2.17;;;0.90;;
25449;SDS011;13371;52.080;5.624;2023-05-16T07:57:06;5.53;;;1.10;;
25449;SDS011;13371;52.080;5.624;2023-05-16T07:59:31;8.57;;;1.17;;
25449;SDS011;13371;52.080;5.624;2023-05-16T08:01:57;4.13;;;0.80;;
25449;SDS011;13371;52.080;5.624;2023-05-16T08:04:23;2.30;;;0.70;;
25449;SDS011;13371;52.080;5.624;2023-05-16T08:06:48;7.90;;;0.80;;
25449;SDS011;13371;52.080;5.624;2023-05-16T08:09:14;1.90;;;0.70;;
25449;SDS011;13371;52.080;5.624;2023-05-16T08:11:39;1.20;;;0.35;;
25449;SDS011;13371;52.080;5.624;2023-05-16T08:14:09;2.30;;;0.60;;
25449;SDS011;13371;52.080;5.624;2023-05-16T08:16:35;3.95;;;0.55;;
25449;SDS011;13371;52.080;5.624;2023-05-16T08:19:00;0.70;;;0.30;;
25449;SDS011;13371;52.080;5.624;2023-05-16T08:21:26;2.08;;;0.40;;
25449;SDS011;13371;52.080;5.624;2023-05-16T08:23:52;1.65;;;0.50;;
25449;SDS011;13371;52.080;5.624;2023-05-16T08:26:18;4.07;;;0.73;;
25449;SDS011;13371;52.080;5.624;2023-05-16T08:28:43;5.15;;;0.60;;
25449;SDS011;13371;52.080;5.624;2023-05-16T08:31:09;2.95;;;0.55;;
25449;SDS011;13371;52.080;5.624;2023-05-16T08:33:34;3.95;;;0.85;;
25449;SDS011;13371;52.080;5.624;2023-05-16T08:36:00;1.95;;;0.57;;
25449;SDS011;13371;52.080;5.624;2023-05-16T08:38:26;6.07;;;0.60;;
25449;SDS011;13371;52.080;5.624;2023-05-16T08:40:51;4.70;;;0.60;;
25449;SDS011;13371;52.080;5.624;2023-05-16T08:43:17;6.25;;;1.40;;
25449;SDS011;13371;52.080;5.624;2023-05-16T08:45:43;6.93;;;0.85;;
25449;SDS011;13371;52.080;5.624;2023-05-16T08:48:09;3.53;;;0.70;;
25449;SDS011;13371;52.080;5.624;2023-05-16T08:50:35;6.28;;;0.75;;
25449;SDS011;13371;52.080;5.624;2023-05-16T08:53:06;2.95;;;0.95;;
25449;SDS011;13371;52.080;5.624;2023-05-16T08:55:34;7.32;;;1.30;;
25449;SDS011;13371;52.080;5.624;2023-05-16T08:58:00;4.70;;;1.08;;
25449;SDS011;13371;52.080;5.624;2023-05-16T09:00:26;5.45;;;1.00;;
25449;SDS011;13371;52.080;5.624;2023-05-16T09:02:52;5.72;;;1.17;;
25449;SDS011;13371;52.080;5.624;2023-05-16T09:05:18;3.75;;;0.90;;
25449;SDS011;13371;52.080;5.624;2023-05-16T09:07:44;7.00;;;0.82;;
25449;SDS011;13371;52.080;5.624;2023-05-16T09:10:10;1.40;;;0.60;;
25449;SDS011;13371;52.080;5.624;2023-05-16T09:12:36;3.33;;;0.60;;
25449;SDS011;13371;52.080;5.624;2023-05-16T09:15:04;2.22;;;0.30;;
25449;SDS011;13371;52.080;5.624;2023-05-16T09:17:34;4.03;;;0.65;;
25449;SDS011;13371;52.080;5.624;2023-05-16T09:20:12;1.10;;;0.40;;
25449;SDS011;13371;52.080;5.624;2023-05-16T09:22:54;3.97;;;0.68;;
25449;SDS011;13371;52.080;5.624;2023-05-16T09:25:22;4.30;;;0.85;;
25449;SDS011;13371;52.080;5.624;2023-05-16T09:27:52;2.78;;;0.50;;
25449;SDS011;13371;52.080;5.624;2023-05-16T09:30:26;3.05;;;0.63;;
25449;SDS011;13371;52.080;5.624;2023-05-16T09:32:53;3.35;;;0.50;;
25449;SDS011;13371;52.080;5.624;2023-05-16T09:35:20;4.93;;;0.63;;
25449;SDS011;13371;52.080;5.624;2023-05-16T09:37:47;4.25;;;0.90;;
25449;SDS011;13371;52.080;5.624;2023-05-16T09:40:13;3.35;;;0.70;;
25449;SDS011;13371;52.080;5.624;2023-05-16T09:42:40;1.77;;;0.50;;
25449;SDS011;13371;52.080;5.624;2023-05-16T09:45:09;5.22;;;0.65;;
25449;SDS011;13371;52.080;5.624;2023-05-16T09:47:39;3.33;;;0.65;;
25449;SDS011;13371;52.080;5.624;2023-05-16T09:50:14;9.30;;;0.88;;
25449;SDS011;13371;52.080;5.624;2023-05-16T09:52:41;4.53;;;0.85;;
25449;SDS011;13371;52.080;5.624;2023-05-16T09:55:07;8.23;;;1.52;;
25449;SDS011;13371;52.080;5.624;2023-05-16T09:57:37;4.07;;;0.45;;
25449;SDS011;13371;52.080;5.624;2023-05-16T10:00:09;4.13;;;0.65;;
25449;SDS011;13371;52.080;5.624;2023-05-16T10:02:36;1.67;;;0.45;;
25449;SDS011;13371;52.080;5.624;2023-05-16T10:05:06;1.48;;;0.40;;
25449;SDS011;13371;52.080;5.624;2023-05-16T10:07:32;2.83;;;0.60;;
25449;SDS011;13371;52.080;5.624;2023-05-16T10:10:05;3.95;;;0.80;;
25449;SDS011;13371;52.080;5.624;2023-05-16T10:12:32;3.95;;;0.57;;
25449;SDS011;13371;52.080;5.624;2023-05-16T10:15:02;4.30;;;0.55;;
25449;SDS011;13371;52.080;5.624;2023-05-16T10:17:30;6.95;;;0.82;;
25449;SDS011;13371;52.080;5.624;2023-05-16T10:19:59;4.32;;;0.77;;
25449;SDS011;13371;52.080;5.624;2023-05-16T10:22:30;5.88;;;0.85;;
25449;SDS011;13371;52.080;5.624;2023-05-16T10:25:14;3.38;;;1.33;;
25449;SDS011;13371;52.080;5.624;2023-05-16T10:27:48;1.67;;;0.60;;
25449;SDS011;13371;52.080;5.624;2023-05-16T10:30:14;3.92;;;0.90;;
25449;SDS011;13371;52.080;5.624;2023-05-16T10:32:41;3.67;;;0.60;;
25449;SDS011;13371;52.080;5.624;2023-05-16T10:35:08;3.70;;;0.77;;
25449;SDS011;13371;52.080;5.624;2023-05-16T10:37:34;4.82;;;0.90;;
25449;SDS011;13371;52.080;5.624;2023-05-16T10:40:01;3.28;;;0.55;;
25449;SDS011;13371;52.080;5.624;2023-05-16T10:42:34;5.15;;;1.17;;
25449;SDS011;13371;52.080;5.624;2023-05-16T10:45:18;4.72;;;0.93;;
25449;SDS011;13371;52.080;5.624;2023-05-16T10:50:31;4.00;;;0.80;;
25449;SDS011;13371;52.080;5.624;2023-05-16T10:55:43;9.13;;;1.60;;
25449;SDS011;13371;52.080;5.624;2023-05-16T11:06:25;2.63;;;0.50;;
25449;SDS011;13371;52.080;5.624;2023-05-16T11:19:47;2.85;;;0.68;;
25449;SDS011;13371;52.080;5.624;2023-05-16T11:24:53;3.42;;;0.57;;
25449;SDS011;13371;52.080;5.624;2023-05-16T11:27:26;3.13;;;0.80;;
25449;SDS011;13371;52.080;5.624;2023-05-16T11:29:52;6.32;;;0.90;;
25449;SDS011;13371;52.080;5.624;2023-05-16T11:32:20;5.45;;;0.82;;
25449;SDS011;13371;52.080;5.624;2023-05-16T11:34:47;3.72;;;0.73;;
25449;SDS011;13371;52.080;5.624;2023-05-16T11:37:14;3.38;;;1.08;;
25449;SDS011;13371;52.080;5.624;2023-05-16T11:39:41;2.83;;;0.65;;
25449;SDS011;13371;52.080;5.624;2023-05-16T11:42:07;5.03;;;0.88;;
25449;SDS011;13371;52.080;5.624;2023-05-16T11:44:33;3.97;;;0.70;;
25449;SDS011;13371;52.080;5.624;2023-05-16T11:46:59;3.03;;;0.93;;
25449;SDS011;13371;52.080;5.624;2023-05-16T11:49:26;5.93;;;1.30;;
25449;SDS011;13371;52.080;5.624;2023-05-16T11:51:53;4.20;;;0.75;;
25449;SDS011;13371;52.080;5.624;2023-05-16T11:54:20;1.42;;;0.32;;
25449;SDS011;13371;52.080;5.624;2023-05-16T11:56:46;3.35;;;0.93;;
25449;SDS011;13371;52.080;5.624;2023-05-16T11:59:13;3.67;;;0.60;;
25449;SDS011;13371;52.080;5.624;2023-05-16T12:01:39;2.25;;;0.50;;
25449;SDS011;13371;52.080;5.624;2023-05-16T12:06:38;3.25;;;0.60;;
25449;SDS011;13371;52.080;5.624;2023-05-16T12:09:04;8.15;;;0.98;;
25449;SDS011;13371;52.080;5.624;2023-05-16T12:11:37;2.28;;;0.50;;
25449;SDS011;13371;52.080;5.624;2023-05-16T12:14:07;5.30;;;0.90;;
25449;SDS011;13371;52.080;5.624;2023-05-16T12:16:35;2.95;;;0.63;;
25449;SDS011;13371;52.080;5.624;2023-05-16T12:19:02;4.75;;;0.85;;
25449;SDS011;13371;52.080;5.624;2023-05-16T12:21:31;9.70;;;0.77;;
25449;SDS011;13371;52.080;5.624;2023-05-16T12:23:57;3.85;;;0.70;;
25449;SDS011;13371;52.080;5.624;2023-05-16T12:26:29;3.92;;;0.77;;
25449;SDS011;13371;52.080;5.624;2023-05-16T12:28:57;2.72;;;0.65;;
25449;SDS011;13371;52.080;5.624;2023-05-16T12:31:27;4.20;;;0.95;;
25449;SDS011;13371;52.080;5.624;2023-05-16T12:33:54;5.20;;;0.70;;
25449;SDS011;13371;52.080;5.624;2023-05-16T12:36:23;4.57;;;0.80;;
25449;SDS011;13371;52.080;5.624;2023-05-16T12:38:52;3.83;;;0.60;;
25449;SDS011;13371;52.080;5.624;2023-05-16T12:41:22;4.05;;;0.88;;
25449;SDS011;13371;52.080;5.624;2023-05-16T12:43:47;6.03;;;1.00;;
25449;SDS011;13371;52.080;5.624;2023-05-16T12:46:14;3.42;;;0.75;;
25449;SDS011;13371;52.080;5.624;2023-05-16T12:48:40;3.08;;;0.95;;
25449;SDS011;13371;52.080;5.624;2023-05-16T12:51:16;2.97;;;0.55;;
25449;SDS011;13371;52.080;5.624;2023-05-16T12:53:43;4.68;;;1.00;;
25449;SDS011;13371;52.080;5.624;2023-05-16T12:56:11;4.03;;;0.75;;
25449;SDS011;13371;52.080;5.624;2023-05-16T12:58:37;5.57;;;1.10;;
25449;SDS011;13371;52.080;5.624;2023-05-16T13:01:03;3.78;;;0.80;;
25449;SDS011;13371;52.080;5.624;2023-05-16T13:03:30;3.38;;;0.60;;
25449;SDS011;13371;52.080;5.624;2023-05-16T13:05:57;8.30;;;0.98;;
25449;SDS011;13371;52.080;5.624;2023-05-16T13:08:23;4.72;;;0.80;;
25449;SDS011;13371;52.080;5.624;2023-05-16T13:10:50;5.80;;;0.70;;
25449;SDS011;13371;52.080;5.624;2023-05-16T13:13:15;5.22;;;0.90;;
25449;SDS011;13371;52.080;5.624;2023-05-16T13:15:42;8.05;;;1.20;;
25449;SDS011;13371;52.080;5.624;2023-05-16T13:18:09;3.35;;;0.82;;
25449;SDS011;13371;52.080;5.624;2023-05-16T13:20:35;8.75;;;1.27;;
25449;SDS011;13371;52.080;5.624;2023-05-16T13:23:00;5.80;;;0.70;;
25449;SDS011;13371;52.080;5.624;2023-05-16T13:25:26;5.13;;;0.95;;
25449;SDS011;13371;52.080;5.624;2023-05-16T13:27:52;5.97;;;1.15;;
25449;SDS011;13371;52.080;5.624;2023-05-16T13:30:17;6.07;;;0.90;;
25449;SDS011;13371;52.080;5.624;2023-05-16T13:32:43;3.45;;;0.88;;
25449;SDS011;13371;52.080;5.624;2023-05-16T13:35:09;2.47;;;0.70;;
25449;SDS011;13371;52.080;5.624;2023-05-16T13:37:34;7.15;;;0.77;;
25449;SDS011;13371;52.080;5.624;2023-05-16T13:40:01;5.68;;;0.75;;
25449;SDS011;13371;52.080;5.624;2023-05-16T13:42:28;7.53;;;1.30;;
25449;SDS011;13371;52.080;5.624;2023-05-16T13:44:54;5.55;;;0.63;;
25449;SDS011;13371;52.080;5.624;2023-05-16T13:47:22;4.35;;;0.95;;
25449;SDS011;13371;52.080;5.624;2023-05-16T13:49:48;7.10;;;1.02;;
25449;SDS011;13371;52.080;5.624;2023-05-16T13:52:13;7.07;;;1.10;;
25449;SDS011;13371;52.080;5.624;2023-05-16T13:54:39;2.95;;;0.90;;
25449;SDS011;13371;52.080;5.624;2023-05-16T13:57:05;8.23;;;1.00;;
25449;SDS011;13371;52.080;5.624;2023-05-16T13:59:31;5.85;;;0.90;;
25449;SDS011;13371;52.080;5.624;2023-05-16T14:01:57;5.10;;;0.80;;
25449;SDS011;13371;52.080;5.624;2023-05-16T14:04:22;5.00;;;1.75;;
25449;SDS011;13371;52.080;5.624;2023-05-16T14:06:50;4.00;;;0.80;;
25449;SDS011;13371;52.080;5.624;2023-05-16T14:09:15;6.07;;;0.80;;
25449;SDS011;13371;52.080;5.624;2023-05-16T14:11:41;6.22;;;1.00;;
25449;SDS011;13371;52.080;5.624;2023-05-16T14:14:07;5.60;;;0.80;;
25449;SDS011;13371;52.080;5.624;2023-05-16T14:16:32;7.63;;;1.10;;
25449;SDS011;13371;52.080;5.624;2023-05-16T14:18:58;4.90;;;0.70;;
25449;SDS011;13371;52.080;5.624;2023-05-16T14:21:23;3.50;;;0.70;;
25449;SDS011;13371;52.080;5.624;2023-05-16T14:23:50;4.53;;;0.52;;
25449;SDS011;13371;52.080;5.624;2023-05-16T14:26:16;5.43;;;1.13;;
25449;SDS011;13371;52.080;5.624;2023-05-16T14:28:46;9.27;;;1.63;;
25449;SDS011;13371;52.080;5.624;2023-05-16T14:31:12;3.55;;;1.13;;
25449;SDS011;13371;52.080;5.624;2023-05-16T14:33:37;3.38;;;0.88;;
25449;SDS011;13371;52.080;5.624;2023-05-16T14:36:05;3.55;;;0.80;;
25449;SDS011;13371;52.080;5.624;2023-05-16T14:38:31;5.30;;;1.10;;
25449;SDS011;13371;52.080;5.624;2023-05-16T14:40:57;2.83;;;0.60;;
25449;SDS011;13371;52.080;5.624;2023-05-16T14:43:22;6.00;;;1.00;;
25449;SDS011;13371;52.080;5.624;2023-05-16T14:45:48;2.88;;;0.70;;
25449;SDS011;13371;52.080;5.624;2023-05-16T14:48:13;7.10;;;1.02;;
25449;SDS011;13371;52.080;5.624;2023-05-16T14:50:40;6.63;;;1.27;;
25449;SDS011;13371;52.080;5.624;2023-05-16T14:53:06;6.22;;;1.10;;
25449;SDS011;13371;52.080;5.624;2023-05-16T14:55:32;2.05;;;0.57;;
25449;SDS011;13371;52.080;5.624;2023-05-16T14:57:58;5.95;;;0.60;;
25449;SDS011;13371;52.080;5.624;2023-05-16T15:00:24;6.30;;;0.73;;
25449;SDS011;13371;52.080;5.624;2023-05-16T15:02:50;3.42;;;1.05;;
25449;SDS011;13371;52.080;5.624;2023-05-16T15:05:16;4.97;;;0.57;;
25449;SDS011;13371;52.080;5.624;2023-05-16T15:07:42;3.47;;;1.20;;
25449;SDS011;13371;52.080;5.624;2023-05-16T15:10:10;5.60;;;0.70;;
25449;SDS011;13371;52.080;5.624;2023-05-16T15:12:36;2.97;;;0.60;;
25449;SDS011;13371;52.080;5.624;2023-05-16T15:15:05;3.67;;;0.65;;
25449;SDS011;13371;52.080;5.624;2023-05-16T15:17:31;1.70;;;0.85;;
25449;SDS011;13371;52.080;5.624;2023-05-16T15:19:57;5.85;;;1.25;;
25449;SDS011;13371;52.080;5.624;2023-05-16T15:22:25;7.43;;;1.10;;
25449;SDS011;13371;52.080;5.624;2023-05-16T15:24:51;5.65;;;1.00;;
25449;SDS011;13371;52.080;5.624;2023-05-16T15:27:16;5.82;;;0.82;;
25449;SDS011;13371;52.080;5.624;2023-05-16T15:29:42;4.40;;;0.80;;
25449;SDS011;13371;52.080;5.624;2023-05-16T15:32:17;4.55;;;0.98;;